This is the latest recevied weather packets stored in our database for station/object KY0TEQ-13. If no packets are shown the sender has not sent any weather packets the latest 10 day(s).
| Time | Temp. | Humidity | Pressure | Rain* | Wind** | Luminosity | Snow |
|---|---|---|---|---|---|---|---|
| 1777890344 | 8.33° C | 62% | 1300.1 hPa | 0 mm | - | 0 W/m² | - |
| 1777890041 | 8.33° C | 62% | 1300.1 hPa | 0 mm | - | 0 W/m² | - |
| 1777889739 | 8.33° C | 62% | 1300.5 hPa | 0 mm | - | 0 W/m² | - |
| 1777889436 | 8.33° C | 62% | 1300.1 hPa | 0 mm | - | 0 W/m² | - |
| 1777889133 | 8.33° C | 61% | 1300.2 hPa | 0 mm | - | 0 W/m² | - |
| 1777888831 | 8.33° C | 61% | 1300.4 hPa | 0 mm | - | 0 W/m² | - |
| 1777888527 | 8.89° C | 60% | 1300.1 hPa | 0 mm | - | 0 W/m² | - |
| 1777888223 | 8.89° C | 59% | 1300.1 hPa | 0 mm | - | 0 W/m² | - |
| 1777887921 | 9.44° C | 57% | 1300.4 hPa | 0 mm | - | 0 W/m² | - |
| 1777887618 | 8.89° C | 58% | 1300.4 hPa | 0 mm | - | 0 W/m² | - |
| 1777887314 | 9.44° C | 57% | 1300.5 hPa | 0 mm | - | 0 W/m² | - |
| 1777887009 | 9.44° C | 57% | 1300.5 hPa | 0 mm | - | 0 W/m² | - |
| 1777886705 | 9.44° C | 57% | 1300.2 hPa | 0 mm | - | 0 W/m² | - |
| 1777886402 | 9.44° C | 57% | 1300.1 hPa | 0 mm | - | 0 W/m² | - |
| 1777886100 | 9.44° C | 57% | 1300.4 hPa | 0 mm | - | 0 W/m² | - |
| 1777885798 | 9.44° C | 58% | 1300.6 hPa | 0 mm | - | 0 W/m² | - |
| 1777885496 | 9.44° C | 58% | 1300.5 hPa | 0 mm | - | 0 W/m² | - |
| 1777885194 | 9.44° C | 57% | 1300.7 hPa | 0 mm | - | 0 W/m² | - |
| 1777884891 | 8.89° C | 59% | 1300.6 hPa | 0 mm | - | 0 W/m² | - |
| 1777884587 | 7.22° C | 62% | 1300.4 hPa | 0 mm | - | 0 W/m² | - |
| 1777884284 | 9.44° C | 55% | 1300 hPa | 0 mm | - | 0 W/m² | - |
| 1777883980 | 8.89° C | 55% | 1300.1 hPa | 0 mm | - | 0 W/m² | - |
| 1777883678 | 9.44° C | 55% | 1300.1 hPa | 0 mm | - | 0 W/m² | - |
| 1777883373 | 9.44° C | 54% | 1300.2 hPa | 0 mm | - | 0 W/m² | - |
| 1777883070 | 9.44° C | 54% | 1300.6 hPa | 0 mm | - | 0 W/m² | - |
* Rain latest hour (hover to see other rain measurements)
** Current wind speed in m/s (hover to see current wind gust speed)